Terminal Aerodrome Forecast
Issued by NWS Memphis, TN

Home | Current Version | Previous Version | Text Only | Print | Product List | Glossary On
Versions: 1 2 3 4 5 6 7 8 9 10 11 12 13 14 15 16 17 18 19 20 21 22 23 24 25 26
030
FTUS44 KMEG 281656 AAB
TAFMEM
TAF AMD
KMEM 281656Z 2817/0112 20012G20KT P6SM -SHRA OVC007
     FM281900 19013G20KT P6SM VCSH BKN020 OVC035
     FM282100 20015G22KT P6SM BKN035
     FM010300 20018G26KT P6SM VCTS SCT030CB BKN040 WS020/19050KT
     FM010700 20018G26KT P6SM VCTS BKN020CB OVC030 WS020/20050KT=

USA.gov is the U.S. government's official web portal to all federal, state and local government web resources and services.